Time;durP1;ratioP1;P1;durP2;ratioP2;P2;SDS_P1;SDS_P2;PMS_P1;PMS_P2;Temp;Humidity;BMP_temperature;BMP_pressure;BME280_temperature;BME280_humidity;BME280_pressure;Samples;Min_cycle;Max_cycle;Signal;HPM_P1;HPM_P2
2023/03/30 00:00:17;;;;;;;21.73;15.83;;;;;;;-0.09;100.00;65661.94;5090607;28;20267;-62
2023/03/30 00:02:45;;;;;;;16.97;14.83;;;;;;;-0.36;100.00;69377.25;5091606;28;20188;-62
2023/03/30 00:05:12;;;;;;;23.50;15.47;;;;;;;-0.36;100.00;68138.69;5091556;28;20216;-63
2023/03/30 00:07:41;;;;;;;19.97;14.40;;;;;;;-0.62;100.00;70776.53;5091545;28;20673;-62
2023/03/30 00:10:09;;;;;;;28.37;16.10;;;;;;;-0.69;100.00;69206.16;5091786;28;20555;-62
2023/03/30 00:12:37;;;;;;;25.40;15.77;;;;;;;-1.02;100.00;69881.91;5091448;28;20203;-61
2023/03/30 00:15:06;;;;;;;26.20;15.70;;;;;;;-0.72;100.00;69192.53;5091365;28;20215;-63
2023/03/30 00:17:35;;;;;;;20.20;16.40;;;;;;;-0.75;100.00;69907.09;5091457;28;20234;-62
2023/03/30 00:20:05;;;;;;;26.07;16.07;;;;;;;-0.96;100.00;70825.56;5091437;28;20211;-61
2023/03/30 00:22:32;;;;;;;32.03;18.10;;;;;;;-0.79;100.00;68813.88;5091621;28;20184;-61
2023/03/30 00:24:59;;;;;;;25.23;16.40;;;;;;;-0.69;100.00;67747.00;5091341;28;20267;-62
2023/03/30 00:27:26;;;;;;;28.70;17.63;;;;;;;-0.74;100.00;69129.47;5091478;28;20224;-62
2023/03/30 00:29:53;;;;;;;32.83;19.00;;;;;;;-0.59;100.00;67841.91;5091606;28;20217;-63
2023/03/30 00:32:20;;;;;;;26.77;17.60;;;;;;;-0.62;100.00;67865.88;5091597;28;20544;-63
2023/03/30 00:34:49;;;;;;;28.97;18.90;;;;;;;-0.56;100.00;66777.31;5091243;28;20180;-62
2023/03/30 00:37:16;;;;;;;30.13;19.50;;;;;;;-0.40;100.00;65177.03;5091387;28;20699;-62
2023/03/30 00:39:43;;;;;;;30.87;19.23;;;;;;;-0.40;100.00;65061.44;5091213;28;20270;-63
2023/03/30 00:42:14;;;;;;;29.00;20.00;;;;;;;-0.45;100.00;63344.09;5091049;28;20717;-62
2023/03/30 00:45:16;;;;;;;29.67;19.13;;;;;;;-0.40;100.00;65116.44;5091177;28;20187;-62
2023/03/30 00:47:48;;;;;;;34.70;20.17;;;;;;;-0.28;100.00;64265.34;5091460;28;20183;-63
2023/03/30 00:50:20;;;;;;;38.80;21.03;;;;;;;-0.20;100.00;65790.03;5091487;28;20638;-63
2023/03/30 00:52:51;;;;;;;33.33;19.77;;;;;;;-0.45;100.00;68868.88;5091092;28;20283;-63
2023/03/30 00:55:20;;;;;;;35.23;19.77;;;;;;;-0.92;100.00;71050.06;5091336;28;20651;-63
2023/03/30 00:57:50;;;;;;;31.33;19.90;;;;;;;-0.96;100.00;71045.78;5090936;28;20202;-63
2023/03/30 01:00:17;;;;;;;40.10;20.17;;;;;;;-0.96;100.00;71540.69;5091698;28;20179;-63
2023/03/30 01:02:50;;;;;;;38.53;19.53;;;;;;;-1.06;100.00;69892.66;5094385;28;20278;-62
2023/03/30 01:05:18;;;;;;;24.37;18.43;;;;;;;-0.80;100.00;68722.63;5094900;28;20176;-62
2023/03/30 01:07:48;;;;;;;24.03;17.93;;;;;;;-0.64;100.00;68036.16;5094540;28;20231;-63
2023/03/30 01:10:16;;;;;;;30.93;18.93;;;;;;;-0.37;100.00;67558.81;5094295;28;20188;-62
2023/03/30 01:12:44;;;;;;;26.50;18.77;;;;;;;-0.36;100.00;68173.16;5094388;28;20200;-62
2023/03/30 01:15:11;;;;;;;29.03;18.77;;;;;;;-0.69;100.00;69338.16;5094485;28;20227;-62
2023/03/30 01:17:53;;;;;;;31.30;18.83;;;;;;;-0.54;100.00;68398.25;5094374;28;20287;-63
2023/03/30 01:20:57;;;;;;;29.63;18.00;;;;;;;-0.42;100.00;67696.16;5094363;28;20220;-62
2023/03/30 01:24:14;;;;;;;27.53;18.70;;;;;;;-0.89;100.00;72107.03;5094516;28;20184;-62
2023/03/30 01:26:49;;;;;;;29.37;19.23;;;;;;;-1.32;100.00;75911.44;5094492;28;20708;-63
2023/03/30 01:29:30;;;;;;;32.67;18.77;;;;;;;-1.27;100.00;75532.91;5094314;28;20195;-63
2023/03/30 01:32:43;;;;;;;27.40;18.13;;;;;;;-1.22;100.00;73896.06;5094003;28;20277;-63
2023/03/30 01:35:36;;;;;;;32.27;18.07;;;;;;;-1.07;100.00;72165.25;5094307;28;20715;-61
2023/03/30 01:38:36;;;;;;;44.93;23.07;;;;;;;-1.10;100.00;70152.94;5093926;28;20216;-62
2023/03/30 01:41:13;;;;;;;37.03;22.10;;;;;;;-1.10;100.00;69782.13;5093785;28;20296;-62
2023/03/30 01:43:51;;;;;;;48.57;24.77;;;;;;;-1.22;100.00;68938.13;5093910;28;20265;-63
2023/03/30 01:46:23;;;;;;;44.90;25.10;;;;;;;-1.10;100.00;68564.94;5093847;28;20199;-63
2023/03/30 01:49:01;;;;;;;34.87;21.60;;;;;;;-1.60;100.00;70727.00;5093785;28;20195;-62
2023/03/30 01:51:33;;;;;;;41.07;21.30;;;;;;;-1.52;100.00;72653.03;5094003;28;20685;-63
2023/03/30 01:54:07;;;;;;;40.30;22.40;;;;;;;-1.32;100.00;70805.75;5091417;28;20230;-62
2023/03/30 01:56:41;;;;;;;41.70;20.60;;;;;;;-1.52;100.00;73914.00;5093226;28;20188;-62
2023/03/30 01:59:12;;;;;;;39.00;21.17;;;;;;;-1.53;100.00;73459.22;5091507;28;20184;-61
2023/03/30 02:01:49;;;;;;;37.37;20.73;;;;;;;-1.58;100.00;74686.44;5092942;28;20252;-63
2023/03/30 02:04:20;;;;;;;30.07;19.27;;;;;;;-1.52;100.00;72738.06;5093339;28;20669;-61
2023/03/30 02:06:53;;;;;;;36.67;19.50;;;;;;;-2.13;100.00;75161.78;5093027;28;20200;-62
2023/03/30 02:09:24;;;;;;;41.57;21.87;;;;;;;-1.50;100.00;72910.72;5092995;28;20246;-63
2023/03/30 02:11:54;;;;;;;40.13;19.70;;;;;;;-1.36;100.00;71768.78;5092012;28;20713;-62
2023/03/30 02:14:29;;;;;;;44.30;19.50;;;;;;;-1.43;100.00;71388.03;5090557;28;20607;-63
2023/03/30 02:17:01;;;;;;;33.33;18.97;;;;;;;-1.60;100.00;73596.03;5092682;28;20187;-62
2023/03/30 02:19:29;;;;;;;33.60;18.10;;;;;;;-1.40;100.00;72242.81;5093050;28;20650;-62
2023/03/30 02:21:56;;;;;;;25.13;16.80;;;;;;;-1.41;100.00;71615.59;5093110;28;20215;-63
2023/03/30 02:24:27;;;;;;;24.30;16.53;;;;;;;-1.48;100.00;70926.72;5092697;28;20231;-62
2023/03/30 02:26:56;;;;;;;28.57;18.33;;;;;;;-1.30;100.00;71683.66;5092844;28;20199;-63
2023/03/30 02:29:23;;;;;;;24.83;17.43;;;;;;;-1.49;100.00;72386.66;5090179;28;20332;-63
2023/03/30 02:31:54;;;;;;;27.50;17.10;;;;;;;-1.80;100.00;74808.09;5092804;28;20650;-62
2023/03/30 02:34:32;;;;;;;27.63;15.40;;;;;;;-1.92;100.00;75329.22;5089830;28;20187;-62
2023/03/30 02:37:21;;;;;;;21.50;13.97;;;;;;;-2.16;100.00;78544.78;5092465;28;20620;-62
2023/03/30 02:39:59;;;;;;;22.10;13.80;;;;;;;-2.12;100.00;76696.44;5090341;28;20191;-64
2023/03/30 02:42:58;;;;;;;34.53;15.00;;;;;;;-1.85;100.00;74639.66;5090952;28;20204;-62
2023/03/30 02:45:37;;;;;;;24.90;14.83;;;;;;;-2.08;100.00;75667.88;5090779;28;20184;-62
2023/03/30 02:48:17;;;;;;;34.67;15.00;;;;;;;-2.42;100.00;76994.25;5090722;28;20624;-64
2023/03/30 02:50:51;;;;;;;23.33;14.50;;;;;;;-2.09;100.00;76139.34;5090464;28;20271;-63
2023/03/30 02:53:27;;;;;;;31.17;14.00;;;;;;;-2.11;100.00;74638.56;5089946;28;20199;-62
2023/03/30 02:56:02;;;;;;;20.47;13.93;;;;;;;-2.04;100.00;75120.31;5092065;28;20183;-62
2023/03/30 02:58:39;;;;;;;21.93;12.97;;;;;;;-2.16;100.00;75057.16;5092347;28;20188;-62
2023/03/30 03:01:14;;;;;;;19.87;12.87;;;;;;;-2.10;100.00;75370.09;5090466;28;20187;-62
2023/03/30 03:03:45;;;;;;;30.77;12.53;;;;;;;-2.01;100.00;75477.56;5089723;28;20274;-63
2023/03/30 03:06:14;;;;;;;21.23;13.00;;;;;;;-1.89;100.00;74535.09;5091878;28;20195;-62
2023/03/30 03:08:46;;;;;;;33.80;14.80;;;;;;;-1.77;100.00;73293.59;5091847;28;20275;-64
2023/03/30 03:11:13;;;;;;;29.43;13.90;;;;;;;-1.67;100.00;72194.03;5091669;28;20668;-62
2023/03/30 03:13:42;;;;;;;27.63;13.87;;;;;;;-1.61;100.00;71880.84;5092051;28;20548;-63
2023/03/30 03:16:11;;;;;;;26.03;13.73;;;;;;;-1.81;100.00;72833.41;5091710;28;20188;-62
2023/03/30 03:18:40;;;;;;;25.63;14.73;;;;;;;-1.71;100.00;72179.03;5089459;28;20264;-62
2023/03/30 03:21:07;;;;;;;24.73;14.43;;;;;;;-1.66;100.00;72482.88;5091846;28;20180;-63
2023/03/30 03:23:35;;;;;;;29.23;14.93;;;;;;;-2.01;100.00;76037.28;5091853;28;20719;-63
2023/03/30 03:26:02;;;;;;;27.23;14.73;;;;;;;-1.97;100.00;75109.41;5091507;28;20180;-61
2023/03/30 03:28:30;;;;;;;32.43;14.73;;;;;;;-1.94;100.00;73920.25;5091786;28;20271;-62
2023/03/30 03:30:59;;;;;;;21.93;14.63;;;;;;;-1.83;100.00;74383.97;5091676;28;20594;-61
2023/03/30 03:33:27;;;;;;;20.13;14.17;;;;;;;-2.11;100.00;75472.00;5089055;28;20242;-62
2023/03/30 03:35:58;;;;;;;28.97;14.10;;;;;;;-2.24;100.00;73696.91;5091526;28;20184;-63
2023/03/30 03:38:26;;;;;;;21.30;14.00;;;;;;;-2.12;100.00;75542.56;5091339;28;20233;-63
2023/03/30 03:40:54;;;;;;;22.40;14.97;;;;;;;-1.82;100.00;72534.66;5091291;28;20188;-62
2023/03/30 03:43:22;;;;;;;26.57;15.17;;;;;;;-1.73;100.00;70940.97;5091547;28;20299;-62
2023/03/30 03:45:50;;;;;;;26.30;15.33;;;;;;;-1.83;100.00;71689.06;5088936;28;20873;-63
2023/03/30 03:48:21;;;;;;;31.87;15.77;;;;;;;-2.15;100.00;75206.66;5091922;28;20617;-62
2023/03/30 03:50:51;;;;;;;30.67;15.77;;;;;;;-2.10;100.00;72915.56;5091985;28;20274;-62
2023/03/30 03:53:18;;;;;;;32.53;16.30;;;;;;;-2.17;100.00;73776.47;5091824;28;20544;-62
2023/03/30 03:55:46;;;;;;;34.90;15.37;;;;;;;-1.90;100.00;71955.28;5091623;28;20215;-62
2023/03/30 03:58:14;;;;;;;34.77;16.30;;;;;;;-1.95;100.00;71831.59;5091876;28;20188;-63
2023/03/30 04:00:41;;;;;;;25.63;15.40;;;;;;;-1.85;100.00;72317.13;5091249;28;20241;-62
2023/03/30 04:03:08;;;;;;;25.50;14.80;;;;;;;-1.70;100.00;71297.75;5091582;28;20269;-63
2023/03/30 04:05:37;;;;;;;28.53;14.77;;;;;;;-1.93;100.00;73784.00;5091454;28;20214;-63
2023/03/30 04:08:05;;;;;;;23.47;16.57;;;;;;;-2.25;100.00;74560.47;5091508;28;20191;-63
2023/03/30 04:10:32;;;;;;;28.43;16.23;;;;;;;-1.90;100.00;73030.19;5091300;28;20266;-63
2023/03/30 04:12:59;;;;;;;33.97;16.43;;;;;;;-1.68;100.00;72407.81;5091457;28;20180;-62
2023/03/30 04:15:26;;;;;;;33.70;15.63;;;;;;;-1.52;100.00;71690.09;5091310;28;20283;-63
2023/03/30 04:17:56;;;;;;;34.97;16.00;;;;;;;-1.36;100.00;70428.25;5091279;28;20283;-62
2023/03/30 04:20:25;;;;;;;53.33;19.57;;;;;;;-1.39;100.00;71102.84;5091291;28;20184;-62
2023/03/30 04:22:56;;;;;;;40.90;17.53;;;;;;;-1.50;100.00;72515.47;5091095;28;20243;-61
2023/03/30 04:25:25;;;;;;;39.87;16.60;;;;;;;-1.33;100.00;71734.97;5091526;28;20268;-63
2023/03/30 04:27:53;;;;;;;52.77;19.27;;;;;;;-1.28;100.00;72595.03;5091491;28;20647;-62
2023/03/30 04:30:21;;;;;;;65.60;22.33;;;;;;;-1.24;100.00;73103.13;5091167;28;20279;-62
2023/03/30 04:33:01;;;;;;;65.40;20.93;;;;;;;-1.25;100.00;74082.50;5091141;28;20276;-63
2023/03/30 04:35:29;;;;;;;47.73;17.50;;;;;;;-1.50;100.00;75067.91;5092327;28;20535;-62
2023/03/30 04:37:59;;;;;;;39.93;17.00;;;;;;;-1.46;100.00;75381.06;5095372;28;20188;-63
2023/03/30 04:40:26;;;;;;;41.03;16.93;;;;;;;-1.17;100.00;76722.91;5095248;28;20619;-63
2023/03/30 04:42:53;;;;;;;35.83;16.13;;;;;;;-1.32;100.00;78076.16;5095171;28;20254;-62
2023/03/30 04:45:20;;;;;;;34.57;16.50;;;;;;;-1.28;100.00;81577.25;5094821;28;20246;-62
2023/03/30 04:47:48;;;;;;;59.17;18.10;;;;;;;-1.29;100.00;89613.69;5094844;28;20563;-62
2023/03/30 04:50:15;;;;;;;40.17;17.33;;;;;;;-1.00;100.00;95782.81;5095134;28;20181;-62
2023/03/30 04:52:42;;;;;;;50.57;18.40;;;;;;;-0.93;100.00;105488.41;5094672;28;20180;-63
2023/03/30 04:55:11;;;;;;;45.37;16.03;;;;;;;-0.90;100.00;118751.59;5094973;28;20678;-63
2023/03/30 04:57:38;;;;;;;38.03;16.07;;;;;;;-1.32;100.00;128137.84;5094681;28;20271;-62
2023/03/30 05:00:09;;;;;;;55.90;17.53;;;;;;;-0.89;100.00;135844.63;5094580;28;20188;-63
2023/03/30 05:02:36;;;;;;;52.17;17.80;;;;;;;-0.49;100.00;143669.97;5094740;28;20663;-63
2023/03/30 05:05:04;;;;;;;41.50;17.67;;;;;;;-0.08;100.00;146047.97;5094458;28;20275;-63
2023/03/30 05:07:31;;;;;;;48.43;18.70;;;;;;;0.79;100.00;146262.25;5094211;28;20187;-63
2023/03/30 05:09:58;;;;;;;41.03;17.77;;;;;;;1.33;100.00;146396.41;5094339;28;20271;-62
2023/03/30 05:12:26;;;;;;;52.83;17.90;;;;;;;1.81;100.00;146516.84;5094246;28;20251;-63
2023/03/30 05:14:54;;;;;;;67.00;18.90;;;;;;;2.22;100.00;146617.22;5094580;28;20261;-63
2023/03/30 05:17:21;;;;;;;57.13;19.93;;;;;;;2.33;100.00;146643.59;5093255;28;20272;-64
2023/03/30 05:19:48;;;;;;;50.20;19.73;;;;;;;2.45;100.00;146673.72;5094276;28;20275;-64
2023/03/30 05:22:15;;;;;;;31.40;14.50;;;;;;;2.52;100.00;146691.28;5094453;28;20230;-63
2023/03/30 05:24:43;;;;;;;37.03;13.50;;;;;;;2.49;100.00;146685.03;5093966;28;20279;-64
2023/03/30 05:27:10;;;;;;;32.40;14.30;;;;;;;2.61;100.00;146715.16;5094069;28;20227;-63
2023/03/30 05:29:38;;;;;;;21.57;12.60;;;;;;;3.23;100.00;146869.63;5094170;28;20604;-63
2023/03/30 05:32:05;;;;;;;41.40;14.50;;;;;;;3.61;100.00;146963.84;5093994;28;20223;-64
2023/03/30 05:34:33;;;;;;;29.83;12.90;;;;;;;4.21;100.00;147110.91;5093671;28;20186;-63
2023/03/30 05:37:00;;;;;;;42.10;14.20;;;;;;;4.22;100.00;147113.44;5094055;28;20554;-63
2023/03/30 05:39:27;;;;;;;34.03;14.03;;;;;;;3.52;100.00;146941.22;5093702;28;20184;-62
2023/03/30 05:41:54;;;;;;;27.17;12.63;;;;;;;3.07;100.00;146828.16;5093546;28;20184;-63
2023/03/30 05:44:21;;;;;;;17.83;11.97;;;;;;;2.38;100.00;146657.38;5094068;28;20489;-63
2023/03/30 05:46:50;;;;;;;21.10;12.40;;;;;;;1.84;100.00;146523.09;5092866;28;20227;-64
2023/03/30 05:49:17;;;;;;;16.73;11.40;;;;;;;1.83;100.00;146520.59;5093447;28;20188;-63
2023/03/30 05:51:44;;;;;;;18.47;12.53;;;;;;;1.89;100.00;146534.41;5093593;28;20223;-62
2023/03/30 05:54:12;;;;;;;17.80;12.13;;;;;;;2.31;100.00;146639.81;5093724;28;20492;-61
2023/03/30 05:56:41;;;;;;;32.73;12.50;;;;;;;2.21;100.00;146615.97;5093440;28;20184;-63
2023/03/30 05:59:08;;;;;;;17.20;11.60;;;;;;;2.08;100.00;146583.31;5093250;28;20182;-63
2023/03/30 06:01:36;;;;;;;16.83;11.63;;;;;;;2.28;100.00;146632.31;5093615;28;20185;-62
2023/03/30 06:04:05;;;;;;;17.13;11.57;;;;;;;2.61;100.00;146713.91;5093399;28;20559;-62
2023/03/30 06:06:34;;;;;;;16.27;10.90;;;;;;;2.41;100.00;146663.69;5093304;28;20316;-64
2023/03/30 06:09:04;;;;;;;12.20;10.60;;;;;;;2.41;100.00;146663.69;5093136;28;20199;-64
2023/03/30 06:11:31;;;;;;;25.77;12.07;;;;;;;2.46;100.00;146676.25;5093035;28;20267;-63
2023/03/30 06:13:58;;;;;;;23.37;13.30;;;;;;;2.84;100.00;146771.69;5093537;28;20257;-63
2023/03/30 06:16:27;;;;;;;13.10;11.63;;;;;;;2.77;100.00;146754.06;5093184;28;20618;-63
2023/03/30 06:18:55;;;;;;;22.67;12.20;;;;;;;3.09;100.00;146834.47;5093516;28;20204;-63
2023/03/30 06:21:23;;;;;;;19.90;12.23;;;;;;;3.55;100.00;146947.53;5093093;28;20187;-64
2023/03/30 06:23:51;;;;;;;15.77;11.67;;;;;;;4.22;100.00;147113.44;5093217;28;20664;-63
2023/03/30 06:26:19;;;;;;;24.80;15.47;;;;;;;4.81;100.00;147260.59;5093113;28;20187;-64
2023/03/30 06:28:46;;;;;;;16.20;11.03;;;;;;;5.36;100.00;147397.75;5093173;28;20188;-66
2023/03/30 06:31:13;;;;;;;14.43;10.33;;;;;;;5.58;100.00;147453.13;5092709;28;20669;-65
2023/03/30 06:33:41;;;;;;;16.13;11.63;;;;;;;5.66;100.00;147473.28;5092669;28;20211;-64
2023/03/30 06:36:11;;;;;;;15.27;10.77;;;;;;;5.84;100.00;147517.34;5091608;28;20184;-64
2023/03/30 06:38:42;;;;;;;19.97;11.70;;;;;;;6.78;100.00;147752.97;5092511;28;20191;-65
2023/03/30 06:41:10;;;;;;;30.60;11.70;;;;;;;6.56;100.00;147697.50;5092793;28;20190;-65
2023/03/30 06:43:38;;;;;;;25.10;12.13;;;;;;;7.18;100.00;147852.50;5092343;28;20303;-65
2023/03/30 06:46:06;;;;;;;25.83;11.07;;;;;;;7.69;100.00;147978.56;5092481;28;20241;-65
2023/03/30 06:48:33;;;;;;;18.73;11.03;;;;;;;8.06;100.00;148070.69;5092550;28;20192;-63
2023/03/30 06:51:01;;;;;;;17.83;10.83;;;;;;;8.33;100.00;148138.81;5092328;28;20180;-63
2023/03/30 06:53:28;;;;;;;29.93;13.07;;;;;;;8.68;100.00;148225.91;5092630;28;20280;-62
2023/03/30 06:55:58;;;;;;;18.47;10.97;;;;;;;9.39;100.00;148402.63;5092488;28;20551;-62
2023/03/30 06:58:27;;;;;;;12.27;9.57;;;;;;;10.19;98.79;148603.53;5091875;28;20278;-64
2023/03/30 07:00:55;;;;;;;11.07;9.50;;;;;;;10.48;94.00;148675.59;5092513;28;20242;-64
2023/03/30 07:03:23;;;;;;;10.23;8.80;;;;;;;10.53;84.87;148689.47;5092325;28;20281;-63
2023/03/30 07:05:51;;;;;;;15.67;8.17;;;;;;;10.92;80.71;148786.81;5092082;28;20223;-63
2023/03/30 07:08:19;;;;;;;14.67;8.73;;;;;;;11.03;79.83;148812.13;5092010;28;20199;-64
2023/03/30 07:10:47;;;;;;;16.37;8.87;;;;;;;11.46;78.67;148922.13;5091966;28;20227;-64
2023/03/30 07:13:16;;;;;;;9.40;8.50;;;;;;;11.43;76.36;148914.56;5092227;28;20207;-64
2023/03/30 07:15:43;;;;;;;8.20;7.70;;;;;;;11.04;73.95;148815.91;5092056;28;20294;-63
2023/03/30 07:18:10;;;;;;;8.47;7.70;;;;;;;11.11;74.32;148832.38;5092098;28;20287;-64
2023/03/30 07:20:37;;;;;;;7.97;7.27;;;;;;;11.03;75.49;148813.41;5091671;28;20257;-64
2023/03/30 07:23:04;;;;;;;11.57;5.70;;;;;;;11.22;66.64;148861.44;5091773;28;20242;-62
2023/03/30 07:25:32;;;;;;;10.33;5.90;;;;;;;11.45;66.03;148919.63;5091782;28;20615;-63
2023/03/30 07:28:02;;;;;;;8.20;6.07;;;;;;;11.34;66.08;148891.78;5091680;28;20199;-64
2023/03/30 07:30:30;;;;;;;6.00;5.13;;;;;;;11.22;65.39;148861.44;5092001;28;20648;-64
2023/03/30 07:32:57;;;;;;;4.07;3.77;;;;;;;11.46;56.95;148922.13;5091961;28;20208;-62
2023/03/30 07:35:25;;;;;;;3.93;3.73;;;;;;;11.75;51.04;148993.06;5091909;28;20226;-64
2023/03/30 07:37:52;;;;;;;3.20;3.00;;;;;;;11.29;48.25;148879.13;5092029;28;20688;-61
2023/03/30 07:40:20;;;;;;;3.20;3.00;;;;;;;11.28;47.71;148875.38;5090677;28;20626;-63
2023/03/30 07:42:47;;;;;;;3.07;2.77;;;;;;;11.12;47.54;148836.13;5091412;28;20219;-63
2023/03/30 07:45:16;;;;;;;3.00;2.90;;;;;;;11.02;47.82;148810.88;5091735;28;20184;-62
2023/03/30 07:47:49;;;;;;;4.03;2.90;;;;;;;11.09;47.40;148828.56;5091915;28;20609;-62
2023/03/30 07:50:17;;;;;;;8.87;4.20;;;;;;;11.24;49.01;148866.53;5091887;28;20188;-63
2023/03/30 07:52:44;;;;;;;3.13;3.00;;;;;;;11.23;48.87;148863.97;5091806;28;20677;-62
2023/03/30 07:55:14;;;;;;;3.33;2.90;;;;;;;11.12;47.38;148836.13;5090709;28;20194;-62
2023/03/30 07:57:41;;;;;;;4.63;4.33;;;;;;;11.71;46.67;148982.88;5091705;28;20199;-62
2023/03/30 08:00:13;;;;;;;3.50;3.30;;;;;;;11.29;46.96;148877.84;5091943;28;20215;-63
2023/03/30 08:02:40;;;;;;;3.80;3.50;;;;;;;11.43;47.57;148914.56;5091303;28;20220;-62
2023/03/30 08:05:10;;;;;;;3.10;2.90;;;;;;;11.29;47.33;148877.84;5091599;28;20188;-66
2023/03/30 08:07:37;;;;;;;3.50;3.10;;;;;;;11.49;46.09;148928.47;5091960;28;20248;-63
2023/03/30 08:10:05;;;;;;;3.57;3.27;;;;;;;11.83;45.42;149013.28;5091637;28;20220;-62
2023/03/30 08:12:32;;;;;;;3.27;3.10;;;;;;;11.74;45.45;148990.50;5095421;28;20246;-63
2023/03/30 08:15:00;;;;;;;2.97;2.30;;;;;;;11.92;44.04;149036.06;5095635;28;20265;-63
2023/03/30 08:17:27;;;;;;;3.10;2.90;;;;;;;11.68;44.25;148975.25;5095582;28;20254;-63
2023/03/30 08:19:55;;;;;;;3.60;3.30;;;;;;;11.84;46.58;149017.06;5095578;28;20635;-65
2023/03/30 08:22:23;;;;;;;3.07;2.80;;;;;;;12.15;45.67;149093.00;5095293;28;20249;-63
2023/03/30 08:24:50;;;;;;;3.23;2.77;;;;;;;12.49;43.94;149177.81;5093850;28;20358;-64
2023/03/30 08:27:18;;;;;;;3.10;3.00;;;;;;;12.49;43.40;149179.06;5095222;28;20184;-62
2023/03/30 08:29:45;;;;;;;3.97;3.70;;;;;;;12.60;43.89;149205.69;5094964;28;20275;-64
2023/03/30 08:32:12;;;;;;;3.10;2.90;;;;;;;12.49;43.17;149179.06;5095118;28;20239;-63
2023/03/30 08:34:39;;;;;;;2.83;2.73;;;;;;;11.91;43.69;149033.53;5095116;28;20208;-64
2023/03/30 08:37:06;;;;;;;2.23;2.13;;;;;;;11.49;43.75;148927.22;5095080;28;20280;-65
2023/03/30 08:39:35;;;;;;;2.53;2.43;;;;;;;11.45;42.76;148919.63;5094931;28;20184;-63
2023/03/30 08:42:24;;;;;;;3.13;2.60;;;;;;;11.96;44.14;149044.94;5095185;28;20692;-65
2023/03/30 08:44:55;;;;;;;3.17;3.00;;;;;;;12.21;42.10;149109.47;5094613;28;20204;-64
2023/03/30 08:47:29;;;;;;;2.23;2.13;;;;;;;11.66;43.81;148970.22;5095155;28;20643;-65
2023/03/30 08:50:02;;;;;;;3.10;3.00;;;;;;;11.78;43.57;149000.63;5094736;28;20316;-65
2023/03/30 08:52:31;;;;;;;3.47;3.27;;;;;;;12.17;43.50;149099.34;5094769;28;20267;-65
2023/03/30 08:55:02;;;;;;;2.10;2.00;;;;;;;12.60;42.00;149205.69;5094853;28;20192;-66
2023/03/30 08:57:47;;;;;;;2.90;2.70;;;;;;;12.30;40.85;149131.00;5094846;28;20256;-65
2023/03/30 09:00:26;;;;;;;2.57;2.37;;;;;;;12.46;41.29;149170.22;5094516;28;20184;-65
2023/03/30 09:03:03;;;;;;;2.13;2.00;;;;;;;12.81;40.13;149258.88;5094548;28;20188;-64
2023/03/30 09:05:33;;;;;;;2.73;2.53;;;;;;;12.58;38.83;149200.59;5094774;28;20271;-65
2023/03/30 09:08:07;;;;;;;3.63;2.20;;;;;;;12.68;38.61;149225.94;5094590;28;20184;-66
2023/03/30 09:10:40;;;;;;;8.57;2.50;;;;;;;13.11;36.76;149334.84;5094199;28;20261;-64
2023/03/30 09:13:08;;;;;;;5.33;2.60;;;;;;;13.12;37.77;149336.13;5094643;28;20199;-65
2023/03/30 09:15:42;;;;;;;2.30;2.20;;;;;;;12.50;39.43;149180.34;5094365;28;20184;-64
2023/03/30 09:18:18;;;;;;;2.60;2.50;;;;;;;12.55;38.86;149193.03;5094449;28;20228;-65
2023/03/30 09:20:48;;;;;;;3.90;2.37;;;;;;;12.61;40.28;149209.44;5094493;28;20206;-65
2023/03/30 09:23:17;;;;;;;2.73;2.60;;;;;;;12.57;39.99;149198.06;5094126;28;20219;-65
2023/03/30 09:25:52;;;;;;;5.03;2.20;;;;;;;12.35;40.04;149144.88;5094116;28;20184;-64
2023/03/30 09:28:24;;;;;;;2.60;2.40;;;;;;;12.53;40.79;149189.19;5094051;28;20626;-65
2023/03/30 09:30:53;;;;;;;2.83;2.57;;;;;;;12.43;39.80;149162.63;5094326;28;20535;-65
2023/03/30 09:33:31;;;;;;;4.47;2.47;;;;;;;12.68;38.93;149225.94;5094083;28;20214;-64
2023/03/30 09:36:12;;;;;;;3.10;2.50;;;;;;;12.97;39.21;149299.38;5093832;28;20184;-64
2023/03/30 09:38:40;;;;;;;2.50;2.30;;;;;;;13.18;39.47;149351.34;5093866;28;20188;-64
2023/03/30 09:41:20;;;;;;;6.63;2.73;;;;;;;14.15;39.47;149594.63;5093599;28;20215;-64
2023/03/30 09:43:51;;;;;;;2.70;2.60;;;;;;;14.31;35.57;149635.19;5093909;28;20770;-64
2023/03/30 09:46:18;;;;;;;2.10;2.00;;;;;;;14.03;34.08;149564.22;5093640;28;20188;-63
2023/03/30 09:48:47;;;;;;;2.57;2.47;;;;;;;14.57;35.63;149699.91;5090928;28;20314;-63
2023/03/30 09:51:16;;;;;;;2.57;2.40;;;;;;;15.40;35.20;149907.94;5091345;28;20246;-63
2023/03/30 09:53:45;;;;;;;2.57;2.20;;;;;;;16.21;35.57;150111.06;5088266;28;20199;-64
2023/03/30 09:56:27;;;;;;;2.40;2.30;;;;;;;16.61;34.93;150211.41;5088514;28;20235;-63
2023/03/30 09:58:54;;;;;;;2.87;2.10;;;;;;;16.97;31.77;150302.88;5088974;28;20196;-64
2023/03/30 10:01:23;;;;;;;2.47;2.20;;;;;;;16.49;32.35;150182.16;5093321;28;20271;-63
2023/03/30 10:04:09;;;;;;;2.50;2.40;;;;;;;16.02;33.94;150064.06;5093398;28;20265;-62
2023/03/30 10:06:45;;;;;;;2.27;2.17;;;;;;;17.04;32.84;150320.63;5093838;28;20599;-62
2023/03/30 10:09:13;;;;;;;4.67;2.73;;;;;;;16.72;33.03;150239.38;5091519;28;20292;-62
2023/03/30 10:11:44;;;;;;;2.60;2.40;;;;;;;17.03;32.28;150316.81;5089193;28;20224;-62
2023/03/30 10:14:28;;;;;;;2.27;2.17;;;;;;;17.40;33.18;150410.81;5092365;28;20183;-63
2023/03/30 10:16:57;;;;;;;2.23;2.13;;;;;;;17.93;31.82;150543.06;5091412;28;20215;-63
2023/03/30 10:19:34;;;;;;;2.60;2.40;;;;;;;18.54;30.74;150698.22;5091191;28;20235;-63
2023/03/30 10:22:21;;;;;;;2.80;2.60;;;;;;;18.92;31.20;150793.66;5080207;28;20286;-63
2023/03/30 10:24:53;;;;;;;5.00;2.77;;;;;;;19.43;30.75;150920.94;5092589;28;20656;-63
2023/03/30 10:27:28;;;;;;;3.17;2.83;;;;;;;19.30;30.49;150889.06;5090259;28;20203;-64
2023/03/30 10:29:55;;;;;;;2.33;2.23;;;;;;;19.23;29.45;150871.22;5091881;28;20196;-63
2023/03/30 10:32:29;;;;;;;3.10;2.37;;;;;;;19.62;29.57;150969.25;5092882;28;20194;-63
2023/03/30 10:35:00;;;;;;;2.43;2.33;;;;;;;20.57;28.88;151208.69;5092695;28;20571;-63
2023/03/30 10:37:32;;;;;;;3.00;2.70;;;;;;;20.43;28.22;151174.28;5092739;28;20188;-64
2023/03/30 10:40:04;;;;;;;3.28;3.03;;;;;;;19.67;29.22;150980.72;5092638;28;20188;-63
2023/03/30 10:42:33;;;;;;;4.25;2.55;;;;;;;19.84;28.85;151024.00;5092617;28;20275;-61
2023/03/30 10:45:03;;;;;;;4.25;3.55;;;;;;;19.14;30.13;150848.31;5092663;28;20208;-63
2023/03/30 10:47:56;;;;;;;5.57;2.60;;;;;;;19.24;29.58;150873.78;5093059;28;20585;-62
2023/03/30 10:50:34;;;;;;;2.80;2.60;;;;;;;19.74;28.19;150998.53;5092469;28;20199;-63
2023/03/30 10:53:14;;;;;;;2.63;2.53;;;;;;;19.61;28.85;150968.00;5092160;28;20184;-62
2023/03/30 10:55:50;;;;;;;2.33;2.23;;;;;;;19.63;29.01;150970.53;5092539;28;20321;-63
2023/03/30 10:58:34;;;;;;;2.53;2.33;;;;;;;19.77;28.87;151006.19;5089751;28;20211;-63
2023/03/30 11:01:11;;;;;;;4.70;2.35;;;;;;;19.77;28.66;151007.47;5087828;28;20215;-62
2023/03/30 11:03:42;;;;;;;2.70;2.50;;;;;;;19.35;29.14;150900.53;5092418;28;20184;-62
2023/03/30 11:06:16;;;;;;;4.17;2.90;;;;;;;19.17;30.71;150855.97;5092776;28;20232;-63
2023/03/30 11:08:47;;;;;;;2.70;2.50;;;;;;;20.67;28.17;151232.84;5092716;28;20184;-63
2023/03/30 11:11:20;;;;;;;2.87;2.70;;;;;;;20.20;29.02;151115.66;5082262;28;20239;-64
2023/03/30 11:13:53;;;;;;;2.57;2.47;;;;;;;18.58;29.73;150708.44;5070617;28;20239;-63
2023/03/30 11:16:25;;;;;;;4.77;2.50;;;;;;;17.07;32.88;150326.97;5072020;28;20272;-62
2023/03/30 11:18:56;;;;;;;2.57;2.47;;;;;;;15.45;32.82;149920.59;5072304;28;20594;-62
2023/03/30 11:21:31;;;;;;;5.30;2.63;;;;;;;15.21;33.97;149859.72;5072037;28;20264;-61
2023/03/30 11:24:01;;;;;;;2.63;2.40;;;;;;;14.42;35.45;149663.16;5071614;28;20311;-61
2023/03/30 11:26:35;;;;;;;4.60;2.43;;;;;;;13.97;35.56;149550.25;5071676;28;20195;-63
2023/03/30 11:29:16;;;;;;;3.67;2.50;;;;;;;13.82;35.87;149512.25;5071551;28;20303;-62
2023/03/30 11:31:53;;;;;;;2.70;2.60;;;;;;;13.45;36.15;149418.50;5071629;28;20221;-62